Acadia National Park, ME

5:44 PM EST on February 07, 2016 (GMT -0500)
College of the Atlantic | | Change Station
CLOSE
Current Station
Personal Weather Station
Location: Bar Harbor, ME
Elevation: 52 ft
Nearby Weather Stations
Active Advisory: Winter Weather Advisory

Elev 52 ft 44.39 °N, 68.22 °W | Updated 40 seconds ago

Clear
Clear
31.6 °F
Feels Like 32 °F
N
0.0
Wind Variable Wind from SE
Gusts 1.0 mph

Today
High -- | Low -- °F
--% Chance of Precip.
Yesterday
High -- | Low -- °F
Precip. -- in
Pressure 30.17 in
Visibility 10.0 miles
Clouds Clear
Windchill 32 °F
Dew Point 26 °F
Humidity 80%
Rainfall 0.30 in
Snow Depth Not available.
6:44 AM 4:50 PM
Waning Crescent, 1% visible
METAR KBHB 072235Z 36005KT 10SM CLR 00/M07 A3017 RMK AO1
Pressure 30.17 in
Visibility 10.0 miles
Clouds Clear
Windchill 32 °F
Dew Point 26 °F
Humidity 80%
Rainfall 0.30 in
Snow Depth Not available.
6:44 AM 4:50 PM
Waning Crescent, 1% visible
METAR KBHB 072235Z 36005KT 10SM CLR 00/M07 A3017 RMK AO1

10-Day Weather Forecast

Almanac

Astronomy

Feb. 07, 2016 Rise Set
Actual Time
Civil Twilight
Nautical Twilight
Astronomical Twilight
Moon
Length of Visible Light
Length of Day
Tomorrow will be .
, % of the Moon is Illuminated

Today's Extremes

State Highs State Lows

Community

WunderPhotos

Upload Photos

1,891,323 photos uploaded!

WunderBlog® & News

Nearby

Air Quality

  Air Quality AQ Index Pollutant
Not available.

Snow Depth

Station Depth Elevation

Earthquake Activity

City Distance Mag. Time & Date
Minimum magnitude displayed is 2.5.

Coastal Water Temperatures

Place Temperature

Stations

Nearby Weather Stations

Station Location Temp. Windchill Dew Point Humidity Wind Precip. Elev Updated Type
                   

Watches & Warnings

Winter Weather Advisory
Issued: 4:13 PM EST Feb. 7, 2016 – National Weather Service

... Winter Weather Advisory in effect from 1 PM Monday to 7 PM EST
Tuesday...

The National Weather Service in Caribou has issued a Winter
Weather Advisory for snow and blowing snow... which is in effect
from 1 PM Monday to 7 PM EST Tuesday.

* Locations... coastal downeast.

* Accumulations... snow accumulation of 6 to 9 inches.

* Snow accumulations... 6 to 9 inches.

* Timing... snow will begin Monday afternoon and continue into
Tuesday evening.

* Impacts... snow and drifting snow will result in travel
difficulties with roads snow covered and slippery. Blowing snow
will restrict visibilities at times.

* Winds... northeast 15 to 25 mph with gusts 35 to 40 mph.

* Temperatures... in the mid 20s.

* Visibilities... a half mile or less at times.

Precautionary/preparedness actions...

A Winter Weather Advisory for snow means that periods of snow
will cause primarily travel difficulties. Be prepared for snow
covered roads and limited visibilities... and use caution while
driving.